Ellensburg, Washington
Current Conditions -  °F | °C
As of 10:53 AM on Wednesday 26 Nov 2014 (Local Time) from KELN Reporting Station
Moderate Fog Moderate Fog  
Wind Chill: 39°   Ceiling: 200
Heat Index: 39°   Visibility: 0.5mi
Dew Point: 36°   Wind: 0mph
Humidity: 89%   Direction: NA
Pressure: 30.16"   Gusts: NA
Location:  47°N, 120.54°W
Report Text: KELN 261853Z AUTO 00000KT 1/2SM FG OVC002 04/02 A3016 RMK AO2 SLP223 T00390022
Loading
Personal Weather Stations






























Interactive Weather Map New forecast layout! Learn more

10-Day Weather Forecast

Advertisements
Track Severe Weather on mobile